Time;durP1;ratioP1;P1;durP2;ratioP2;P2;SDS_P1;SDS_P2;PMS_P1;PMS_P2;Temp;Humidity;BMP_temperature;BMP_pressure;BME280_temperature;BME280_humidity;BME280_pressure;Samples;Min_cycle;Max_cycle;Signal;HPM_P1;HPM_P2
2022/01/25 00:24:18;;;;;;;22.40;12.40;;;;;;;-16.38;68.39;98936.30;110346;1244;71610;-66
2022/01/25 00:32:16;;;;;;;14.90;9.10;;;;;;;-16.47;68.98;98933.78;110478;1244;68912;-66
2022/01/25 00:34:46;;;;;;;22.70;13.50;;;;;;;-16.48;69.02;98929.41;110408;1244;69420;-66
2022/01/25 00:37:15;;;;;;;29.90;18.40;;;;;;;-16.49;69.02;98926.68;110382;1244;59686;-67
2022/01/25 00:39:45;;;;;;;23.80;15.20;;;;;;;-16.51;69.33;98927.25;110395;1244;59590;-66
2022/01/25 00:42:15;;;;;;;32.40;16.40;;;;;;;-16.52;69.07;98926.52;110502;1244;72313;-66
2022/01/25 00:44:48;;;;;;;21.00;12.60;;;;;;;-16.53;68.02;98926.27;110467;1245;67649;-66
2022/01/25 00:47:17;;;;;;;13.70;7.70;;;;;;;-16.55;67.55;98928.15;110477;1244;69398;-66
2022/01/25 00:49:52;;;;;;;56.80;26.60;;;;;;;-16.58;67.21;98928.81;110447;1244;59778;-66
2022/01/25 00:53:53;;;;;;;39.30;19.70;;;;;;;-16.62;67.28;98932.60;110409;1244;59674;-66
2022/01/25 00:55:14;;;;;;;32.70;17.30;;;;;;;-16.66;66.89;98930.20;110364;1244;70826;-66
2022/01/25 00:57:43;;;;;;;42.50;25.80;;;;;;;-16.69;67.72;98930.38;110206;1247;67924;-65
2022/01/25 01:00:13;;;;;;;30.60;17.70;;;;;;;-16.71;67.95;98929.42;110458;1244;69490;-65
2022/01/25 01:02:42;;;;;;;;;;;;;;;-16.73;67.57;98929.51;110438;1244;59723;-66
2022/01/25 01:05:12;;;;;;;21.50;14.50;;;;;;;-16.74;67.16;98923.41;110435;1244;59594;-67
2022/01/25 01:07:43;;;;;;;19.70;12.40;;;;;;;-16.77;68.18;98920.43;110421;1244;71556;-66
2022/01/25 01:10:16;;;;;;;31.00;19.50;;;;;;;-16.80;68.16;98926.27;110460;1245;68578;-66
2022/01/25 01:29:14;;;;;;;15.70;10.30;;;;;;;-17.07;69.94;98913.35;110458;1244;59770;-66
2022/01/25 01:32:17;;;;;;;54.40;26.50;;;;;;;-17.09;69.06;98909.86;110238;1244;59741;-66
2022/01/25 01:45:43;;;;;;;32.00;14.60;;;;;;;-17.36;67.46;98889.63;110445;1244;59739;-67
2022/01/25 01:48:28;;;;;;;69.90;33.40;;;;;;;-17.40;67.65;98884.20;110388;1244;71601;-65
2022/01/25 01:51:08;;;;;;;41.90;25.80;;;;;;;-17.44;68.22;98889.11;110174;1247;68548;-65
2022/01/25 01:53:38;;;;;;;35.40;23.00;;;;;;;-17.46;68.45;98887.31;110112;1248;69294;-66
2022/01/25 01:56:09;;;;;;;36.50;20.70;;;;;;;-17.48;68.74;98885.73;110133;1247;59729;-65
2022/01/25 01:58:40;;;;;;;48.50;25.00;;;;;;;-17.49;68.69;98884.00;110153;1247;59731;-65
2022/01/25 02:01:15;;;;;;;35.10;23.50;;;;;;;-17.52;68.10;98880.66;110140;1247;70568;-66
2022/01/25 02:03:46;;;;;;;41.10;23.40;;;;;;;-17.59;68.50;98875.25;110107;1247;68374;-67
2022/01/25 02:06:16;;;;;;;25.70;14.70;;;;;;;-17.62;69.33;98867.69;109909;1248;69322;-66
2022/01/25 02:08:45;;;;;;;19.80;14.60;;;;;;;-17.65;69.57;98866.38;110107;1247;59704;-65
2022/01/25 02:11:16;;;;;;;41.20;23.80;;;;;;;-17.66;70.21;98865.92;110090;1247;59714;-66
2022/01/25 02:13:46;;;;;;;30.50;19.70;;;;;;;-17.66;70.39;98864.64;110117;1247;70869;-66
2022/01/25 02:16:34;;;;;;;21.70;14.20;;;;;;;-17.65;69.82;98864.52;110108;1247;68594;-66
2022/01/25 02:24:46;;;;;;;27.00;14.20;;;;;;;-17.74;68.88;98863.05;110106;1247;59668;-66
2022/01/25 02:27:17;;;;;;;51.50;28.70;;;;;;;-17.75;68.72;98866.11;110090;1248;71505;-66
2022/01/25 02:29:48;;;;;;;27.00;17.20;;;;;;;-17.82;68.30;98863.54;110156;1247;68578;-65
2022/01/25 02:32:18;;;;;;;40.30;20.30;;;;;;;-17.85;68.45;98864.16;110161;1246;68409;-65
2022/01/25 02:34:48;;;;;;;31.50;18.70;;;;;;;-17.86;68.65;98867.77;110071;1247;60156;-66
2022/01/25 02:37:19;;;;;;;24.40;15.30;;;;;;;-17.87;68.98;98866.04;110128;1246;59711;-65
2022/01/25 02:39:49;;;;;;;23.60;15.80;;;;;;;-17.89;69.16;98865.77;110149;1247;71127;-66
2022/01/25 02:42:20;;;;;;;30.40;18.80;;;;;;;-17.90;69.51;98874.88;110143;1247;68515;-66
2022/01/25 02:44:50;;;;;;;38.10;20.40;;;;;;;-17.93;69.13;98872.54;110179;1246;68662;-66
2022/01/25 02:50:11;;;;;;;11.20;9.80;;;;;;;-18.03;69.99;98871.23;110353;1245;59675;-66
2022/01/25 02:52:41;;;;;;;8.40;6.00;;;;;;;-18.03;69.30;98869.27;110461;1247;70754;-66
2022/01/25 02:55:11;;;;;;;12.10;10.90;;;;;;;-17.98;67.28;98866.71;110378;1244;68643;-65
2022/01/25 02:57:42;;;;;;;27.50;13.90;;;;;;;-17.98;67.06;98868.24;110144;1245;68681;-65
2022/01/25 03:00:13;;;;;;;;;;;;;;;-18.02;67.52;98869.80;110140;1247;59696;-66
2022/01/25 03:02:43;;;;;;;11.60;9.80;;;;;;;-18.07;67.67;98869.35;110432;1245;59672;-66
2022/01/25 03:05:13;;;;;;;18.80;12.80;;;;;;;-18.12;67.25;98870.03;110353;1244;71658;-67
2022/01/25 03:07:44;;;;;;;29.70;18.30;;;;;;;-18.17;68.17;98866.56;110433;1244;67795;-66
2022/01/25 03:10:14;;;;;;;34.40;21.80;;;;;;;-18.20;68.76;98864.52;110432;1245;68457;-66
2022/01/25 03:12:52;;;;;;;34.20;19.80;;;;;;;-18.24;68.91;98867.79;110293;1244;59643;-64
2022/01/25 03:15:30;;;;;;;37.30;18.70;;;;;;;-18.33;68.51;98867.39;110396;1244;59660;-67
2022/01/25 03:18:07;;;;;;;41.10;21.30;;;;;;;-18.38;68.89;98863.73;110430;1244;70571;-65
2022/01/25 03:20:51;;;;;;;30.40;18.70;;;;;;;-18.40;69.86;98866.94;110361;1244;68580;-66
2022/01/25 03:23:22;;;;;;;32.60;17.00;;;;;;;-18.39;70.05;98866.83;110216;1245;68727;-66
2022/01/25 03:25:52;;;;;;;12.90;9.20;;;;;;;-18.38;70.20;98867.92;110145;1247;59669;-66
2022/01/25 03:28:22;;;;;;;14.40;6.90;;;;;;;-18.36;70.35;98864.52;110189;1247;59671;-66
2022/01/25 03:30:52;;;;;;;;;;;;;;;-18.34;70.08;98860.98;110120;1247;71569;-65
2022/01/25 03:33:22;;;;;;;8.60;7.50;;;;;;;-18.33;70.23;98854.26;110120;1247;68060;-67
2022/01/25 03:35:53;;;;;;;20.80;14.30;;;;;;;-18.31;70.56;98845.67;110151;1247;69613;-65
2022/01/25 03:38:23;;;;;;;7.90;6.90;;;;;;;-18.34;70.33;98843.48;110153;1246;59704;-67
2022/01/25 03:40:52;;;;;;;29.30;19.60;;;;;;;-18.36;69.61;98844.04;110315;1247;59743;-66
2022/01/25 03:43:22;;;;;;;20.10;10.70;;;;;;;-18.40;69.37;98846.65;110407;1245;70783;-66
2022/01/25 03:46:02;;;;;;;13.00;6.10;;;;;;;-18.42;69.04;98846.84;110426;1245;67676;-65
2022/01/25 03:51:03;;;;;;;15.60;10.00;;;;;;;-18.46;68.70;98850.40;110513;1245;59751;-65
2022/01/25 03:53:33;;;;;;;;;;;;;;;-18.46;69.08;98848.57;110208;1245;59716;-65
2022/01/25 03:56:03;;;;;;;7.00;6.10;;;;;;;-18.45;69.08;98845.14;110501;1246;71389;-65
2022/01/25 03:58:33;;;;;;;28.20;20.30;;;;;;;-18.45;67.73;98836.98;110442;1247;69016;-65
2022/01/25 04:01:03;;;;;;;8.80;7.80;;;;;;;-18.47;68.31;98839.67;110529;1244;68215;-66
2022/01/25 04:03:39;;;;;;;15.30;10.10;;;;;;;-18.51;68.62;98841.96;110123;1247;59718;-66
2022/01/25 04:06:11;;;;;;;12.40;8.90;;;;;;;-18.52;68.87;98840.38;110204;1247;59688;-65
2022/01/25 04:08:40;;;;;;;37.00;19.80;;;;;;;-18.55;67.80;98838.41;110492;1245;71377;-64
2022/01/25 04:11:10;;;;;;;34.30;22.30;;;;;;;-18.60;67.86;98835.75;110499;1245;67776;-66
2022/01/25 04:13:40;;;;;;;;;;;;;;;-18.67;68.71;98843.94;110062;1247;69051;-66
2022/01/25 04:16:15;;;;;;;35.40;16.90;;;;;;;-18.71;68.72;98843.71;110028;1247;59697;-66
2022/01/25 04:19:02;;;;;;;19.90;15.10;;;;;;;-18.72;68.79;98848.97;110212;1247;59713;-66
2022/01/25 04:26:57;;;;;;;30.40;19.50;;;;;;;-18.75;69.38;98852.94;110381;1245;68762;-65
2022/01/25 04:29:27;;;;;;;16.10;9.20;;;;;;;-18.81;69.32;98854.90;110442;1244;59669;-64
2022/01/25 04:31:57;;;;;;;42.20;21.80;;;;;;;-18.84;69.15;98854.71;110173;1247;59681;-66
2022/01/25 04:51:17;;;;;;;12.60;9.40;;;;;;;-18.94;69.08;98848.91;110445;1244;68601;-66
2022/01/25 04:59:21;;;;;;;33.60;21.70;;;;;;;-19.06;69.19;98844.46;110140;1247;59724;-65
2022/01/25 05:01:55;;;;;;;29.20;20.20;;;;;;;-19.10;69.17;98841.18;110147;1247;70757;-65
2022/01/25 05:04:27;;;;;;;22.00;13.90;;;;;;;-19.11;69.62;98840.48;110188;1247;67914;-66
2022/01/25 05:07:07;;;;;;;13.70;8.50;;;;;;;-19.09;69.39;98844.05;110495;1244;69367;-65
2022/01/25 05:09:37;;;;;;;20.00;12.30;;;;;;;-19.07;69.43;98848.05;110119;1247;59812;-63
2022/01/25 05:12:09;;;;;;;9.30;6.00;;;;;;;-19.06;69.39;98852.11;110148;1248;59701;-66
2022/01/25 05:15:17;;;;;;;32.90;18.30;;;;;;;-19.05;68.96;98851.85;110316;1244;71690;-65
2022/01/25 05:17:42;;;;;;;28.80;19.20;;;;;;;-19.02;68.43;98848.04;110396;1245;68937;-65
2022/01/25 05:22:59;;;;;;;67.70;38.00;;;;;;;-19.05;67.69;98853.54;110112;1247;59729;-64
2022/01/25 05:25:29;;;;;;;77.40;34.10;;;;;;;-19.10;68.57;98846.18;110077;1248;59674;-65
2022/01/25 05:27:59;;;;;;;67.30;37.10;;;;;;;-19.14;67.96;98842.56;110093;1247;70789;-64
2022/01/25 05:30:28;;;;;;;48.50;25.90;;;;;;;-19.24;67.50;98832.15;110090;1247;68616;-64
2022/01/25 05:32:57;;;;;;;14.90;9.80;;;;;;;-19.28;67.57;98821.70;110034;1247;68650;-65
2022/01/25 05:35:27;;;;;;;34.90;20.70;;;;;;;-19.30;67.68;98821.74;110102;1247;59656;-66
2022/01/25 05:37:57;;;;;;;26.70;15.90;;;;;;;-19.33;67.80;98816.40;110083;1248;60086;-65
2022/01/25 05:41:10;;;;;;;43.80;25.50;;;;;;;-19.33;68.00;98807.76;109987;1248;70853;-64
2022/01/25 05:44:25;;;;;;;15.80;12.20;;;;;;;-19.34;68.39;98808.22;110045;1248;67826;-65
2022/01/25 05:46:20;;;;;;;30.80;22.30;;;;;;;-19.32;67.87;98807.18;109985;1248;67762;-65
2022/01/25 05:48:50;;;;;;;26.70;14.80;;;;;;;-19.32;68.33;98807.52;110105;1247;59667;-64
2022/01/25 05:51:19;;;;;;;44.30;26.50;;;;;;;-19.32;68.72;98810.33;110504;1244;59692;-65
2022/01/25 05:53:48;;;;;;;42.70;28.50;;;;;;;-19.32;69.05;98810.16;110214;1247;71523;-64
2022/01/25 05:56:18;;;;;;;42.80;27.20;;;;;;;-19.33;69.60;98815.08;110453;1245;68719;-64
2022/01/25 05:58:47;;;;;;;49.30;26.00;;;;;;;-19.34;69.81;98820.81;110430;1247;68619;-65
2022/01/25 06:01:19;;;;;;;19.20;12.50;;;;;;;-19.32;70.38;98823.44;110151;1248;60088;-65
2022/01/25 06:03:48;;;;;;;35.50;22.20;;;;;;;-19.28;69.82;98823.36;110364;1245;59682;-65
2022/01/25 06:06:19;;;;;;;21.80;14.20;;;;;;;-19.26;69.44;98820.83;110430;1245;70813;-65
2022/01/25 06:08:59;;;;;;;40.50;22.60;;;;;;;-19.26;69.14;98817.88;109999;1247;68018;-65
2022/01/25 06:11:28;;;;;;;43.80;19.40;;;;;;;-19.24;68.68;98816.80;110348;1245;70013;-65
2022/01/25 06:13:57;;;;;;;14.80;11.30;;;;;;;-19.22;68.93;98814.65;110339;1247;59696;-65
2022/01/25 06:16:30;;;;;;;44.40;26.70;;;;;;;-19.19;68.65;98816.98;110137;1247;59717;-64
2022/01/25 06:19:00;;;;;;;57.80;33.00;;;;;;;-19.19;68.63;98818.65;110264;1247;71233;-64
2022/01/25 06:21:29;;;;;;;;;;;;;;;-19.18;68.37;98817.86;110505;1245;69246;-65
2022/01/25 06:23:58;;;;;;;42.80;27.00;;;;;;;-19.18;68.85;98817.59;110450;1245;69441;-66
2022/01/25 06:26:27;;;;;;;31.80;17.90;;;;;;;-19.14;69.11;98816.15;110368;1245;60107;-66
2022/01/25 06:28:56;;;;;;;75.20;38.10;;;;;;;-19.07;69.01;98816.63;110389;1245;59683;-65
2022/01/25 06:31:28;;;;;;;112.10;57.30;;;;;;;-18.97;68.83;98820.20;110425;1244;71577;-64
2022/01/25 06:33:58;;;;;;;42.60;29.00;;;;;;;-18.89;68.42;98819.61;110414;1245;69160;-65
2022/01/25 06:36:27;;;;;;;;;;;;;;;-18.77;68.34;98820.55;110405;1245;70190;-65
2022/01/25 06:38:56;;;;;;;37.40;30.40;;;;;;;-18.63;66.98;98822.42;110382;1244;59666;-65
2022/01/25 06:41:27;;;;;;;100.50;46.00;;;;;;;-18.52;66.77;98815.75;110479;1245;59685;-65
2022/01/25 06:43:56;;;;;;;77.00;46.40;;;;;;;-18.43;66.94;98812.63;110132;1247;71581;-64
2022/01/25 06:46:26;;;;;;;42.40;28.90;;;;;;;-18.33;67.83;98815.15;110434;1244;68706;-64
2022/01/25 06:48:55;;;;;;;36.90;22.10;;;;;;;-18.19;68.36;98813.66;110378;1244;68997;-65
2022/01/25 06:51:24;;;;;;;51.70;29.30;;;;;;;-18.08;68.03;98809.68;110431;1245;59740;-65
2022/01/25 06:53:53;;;;;;;54.70;33.30;;;;;;;-17.96;68.23;98809.73;110157;1247;59721;-65
2022/01/25 06:56:23;;;;;;;32.40;22.00;;;;;;;-17.84;68.71;98807.30;110535;1246;71527;-65
2022/01/25 06:58:53;;;;;;;49.00;25.40;;;;;;;-17.69;68.64;98810.48;110428;1244;68318;-65
2022/01/25 07:01:22;;;;;;;39.90;25.80;;;;;;;-17.53;68.46;98811.95;110008;1247;560698;-65
2022/01/25 07:03:54;;;;;;;22.70;13.60;;;;;;;-17.33;68.58;98809.27;110349;1246;59688;-64
2022/01/25 07:06:24;;;;;;;17.40;10.90;;;;;;;-17.09;68.48;98815.80;110341;1245;60038;-64
2022/01/25 07:08:54;;;;;;;29.90;15.40;;;;;;;-16.73;68.15;98812.04;110402;1244;70883;-65
2022/01/25 07:11:23;;;;;;;;;;;;;;;-16.18;67.59;98808.84;110345;1247;68725;-65
2022/01/25 07:13:52;;;;;;;103.90;59.20;;;;;;;-15.63;65.99;98810.75;110416;1247;70069;-64
2022/01/25 07:16:21;;;;;;;50.30;27.90;;;;;;;-15.09;64.48;98812.00;110428;1247;59663;-65
2022/01/25 07:18:51;;;;;;;105.00;58.30;;;;;;;-14.48;62.96;98809.59;110335;1245;59984;-65
2022/01/25 07:21:21;;;;;;;61.40;35.70;;;;;;;-13.82;62.12;98807.08;110378;1244;71574;-64
2022/01/25 07:23:50;;;;;;;;;;;;;;;-13.14;60.99;98811.05;110415;1244;68599;-65
2022/01/25 07:26:19;;;;;;;38.40;20.60;;;;;;;-12.50;60.47;98802.59;110128;1247;69386;-64
2022/01/25 07:28:48;;;;;;;110.40;58.10;;;;;;;-11.90;58.17;98794.31;110430;1247;59695;-65
2022/01/25 07:31:17;;;;;;;82.60;40.20;;;;;;;-11.36;55.00;98797.13;110206;1245;59703;-66
2022/01/25 07:34:02;;;;;;;107.10;59.60;;;;;;;-10.74;54.18;98793.35;110420;1247;71501;-67
2022/01/25 07:36:41;;;;;;;129.10;73.00;;;;;;;-10.18;52.32;98797.51;110369;1244;67828;-66
2022/01/25 07:39:22;;;;;;;119.20;65.70;;;;;;;-9.83;49.38;98794.66;110416;1245;70050;-67
2022/01/25 07:41:58;;;;;;;126.60;69.90;;;;;;;-9.47;49.65;98795.73;110314;1246;59674;-65
2022/01/25 07:44:41;;;;;;;125.00;68.10;;;;;;;-8.90;48.06;98786.79;110240;1247;59660;-65
2022/01/25 07:47:11;;;;;;;79.30;43.20;;;;;;;-8.55;46.09;98781.60;110406;1244;71878;-65
2022/01/25 07:49:41;;;;;;;74.00;40.50;;;;;;;-8.06;46.14;98777.98;110316;1244;67599;-67
2022/01/25 07:52:15;;;;;;;107.20;56.30;;;;;;;-7.52;45.32;98780.67;110445;1245;68956;-64
2022/01/25 07:54:44;;;;;;;95.00;55.50;;;;;;;-7.20;43.72;98790.47;110413;1244;59754;-66
2022/01/25 07:57:14;;;;;;;100.60;55.00;;;;;;;-6.88;41.59;98787.35;110452;1245;59724;-64
2022/01/25 07:59:43;;;;;;;57.00;34.70;;;;;;;-6.61;41.81;98789.19;110424;1244;70794;-66
2022/01/25 08:02:16;;;;;;;63.60;35.00;;;;;;;-5.98;42.58;98791.52;110360;1246;67852;-67
2022/01/25 08:04:54;;;;;;;61.90;34.80;;;;;;;-5.32;39.45;98785.11;110040;1245;69396;-66
2022/01/25 08:07:30;;;;;;;89.50;49.10;;;;;;;-4.87;39.36;98779.66;109967;1248;60123;-66
2022/01/25 08:10:15;;;;;;;88.90;50.60;;;;;;;-4.37;41.01;98778.26;110319;1244;59735;-68
2022/01/25 08:12:52;;;;;;;67.60;38.10;;;;;;;-4.09;38.79;98778.65;110383;1245;72778;-68
2022/01/25 08:15:47;;;;;;;86.70;52.10;;;;;;;-3.60;37.68;98780.67;110517;1244;68625;-65
2022/01/25 08:18:30;;;;;;;91.90;51.90;;;;;;;-3.19;36.95;98772.67;110552;1244;69382;-66
2022/01/25 08:21:12;;;;;;;83.60;43.20;;;;;;;-2.67;36.27;98772.13;110450;1244;59663;-67
2022/01/25 08:24:01;;;;;;;74.00;44.00;;;;;;;-2.70;35.60;98769.73;110127;1245;59660;-68
2022/01/25 08:26:44;;;;;;;51.40;30.30;;;;;;;-2.70;36.23;98772.98;110221;1246;71626;-67
2022/01/25 08:29:19;;;;;;;65.70;35.50;;;;;;;-2.15;35.14;98770.96;110568;1244;66825;-67
2022/01/25 08:32:06;;;;;;;60.40;33.40;;;;;;;-1.95;34.32;98769.77;109847;1247;69490;-66
2022/01/25 08:34:51;;;;;;;80.10;49.10;;;;;;;-1.42;33.93;98769.13;110179;1248;59668;-66
2022/01/25 08:37:34;;;;;;;78.00;43.70;;;;;;;-1.66;33.51;98773.81;109899;1251;59686;-66
2022/01/25 08:40:37;;;;;;;70.60;42.70;;;;;;;-2.94;35.31;98770.02;109278;1257;71551;-67
2022/01/25 08:43:16;;;;;;;70.20;44.10;;;;;;;-3.50;36.90;98765.04;109347;1257;69377;-66
2022/01/25 08:46:20;;;;;;;68.00;37.50;;;;;;;-3.80;37.30;98763.17;109469;1257;70370;-66
2022/01/25 08:49:12;;;;;;;60.80;34.40;;;;;;;-3.13;37.11;98764.84;109428;1257;59779;-67
2022/01/25 08:51:54;;;;;;;87.00;51.90;;;;;;;-2.60;36.08;98761.04;109517;1255;59692;-66
2022/01/25 08:55:01;;;;;;;57.20;30.90;;;;;;;-2.80;36.09;98758.28;109419;1257;72142;-67
2022/01/25 08:57:43;;;;;;;51.50;29.90;;;;;;;-2.48;36.18;98765.66;109046;1261;68709;-66
2022/01/25 09:00:25;;;;;;;76.10;46.00;;;;;;;-1.97;35.09;98764.12;109068;1260;69622;-67
2022/01/25 09:02:54;;;;;;;52.20;32.70;;;;;;;-1.63;34.25;98763.02;108627;1261;59765;-65
2022/01/25 09:05:24;;;;;;;75.40;45.30;;;;;;;-1.53;34.52;98760.45;108995;1257;59779;-67
2022/01/25 09:07:56;;;;;;;82.90;50.90;;;;;;;-1.42;33.82;98759.72;109427;1257;70686;-67
2022/01/25 09:10:26;;;;;;;75.30;47.40;;;;;;;-1.90;34.47;98765.84;109423;1257;68652;-70
2022/01/25 09:12:55;;;;;;;91.20;62.00;;;;;;;-1.69;34.40;98759.45;109309;1259;68782;-67
2022/01/25 09:15:24;;;;;;;94.20;59.80;;;;;;;-1.55;33.19;98753.95;109624;1252;59739;-68
2022/01/25 09:17:54;;;;;;;86.40;56.20;;;;;;;-1.94;33.77;98759.67;109622;1254;59721;-66
2022/01/25 09:20:23;;;;;;;66.30;39.10;;;;;;;-1.88;34.04;98762.05;109750;1254;72145;-66
2022/01/25 09:22:52;;;;;;;87.60;56.40;;;;;;;-1.32;33.93;98756.25;109739;1253;69347;-68
2022/01/25 09:25:30;;;;;;;67.10;45.10;;;;;;;-1.13;33.35;98749.68;109659;1253;70351;-68
2022/01/25 09:28:00;;;;;;;91.30;55.00;;;;;;;-0.99;32.96;98754.74;109696;1254;59742;-67
2022/01/25 09:30:30;;;;;;;62.40;37.70;;;;;;;-1.19;32.87;98750.05;109719;1254;59756;-69
2022/01/25 09:32:59;;;;;;;74.20;50.30;;;;;;;-1.56;33.90;98747.11;109694;1254;71510;-66
2022/01/25 09:35:28;;;;;;;76.90;46.10;;;;;;;-0.99;33.04;98741.91;110061;1245;67863;-67
2022/01/25 09:37:57;;;;;;;51.00;30.60;;;;;;;-0.38;32.79;98743.56;110136;1248;69466;-67
2022/01/25 09:40:26;;;;;;;63.70;40.30;;;;;;;0.83;31.87;98744.20;110569;1244;59793;-66
2022/01/25 09:42:57;;;;;;;47.40;29.80;;;;;;;1.58;29.46;98745.73;110520;1244;59663;-68
2022/01/25 09:45:27;;;;;;;51.30;30.70;;;;;;;2.13;29.64;98739.85;110612;1244;71452;-67
2022/01/25 09:47:56;;;;;;;63.20;40.10;;;;;;;2.91;28.48;98726.63;110569;1245;67668;-68
2022/01/25 09:50:26;;;;;;;66.20;39.90;;;;;;;3.63;27.17;98722.92;110547;1244;69856;-66
2022/01/25 09:52:56;;;;;;;;;;;;;;;4.24;26.59;98715.88;110555;1244;59681;-67
2022/01/25 09:55:26;;;;;;;49.10;28.30;;;;;;;4.73;25.53;98711.08;110264;1244;59796;-69
2022/01/25 09:57:56;;;;;;;57.20;35.20;;;;;;;5.47;24.75;98706.95;110240;1247;70592;-70
2022/01/25 10:00:30;;;;;;;68.80;43.80;;;;;;;5.81;24.04;98702.23;110640;1245;67132;-66
2022/01/25 10:03:11;;;;;;;67.50;44.10;;;;;;;5.34;23.54;98696.65;110488;1244;69412;-67
2022/01/25 10:05:45;;;;;;;49.40;31.30;;;;;;;5.49;24.30;98695.80;110496;1244;59678;-65
2022/01/25 10:08:26;;;;;;;69.00;44.20;;;;;;;6.06;24.60;98692.41;110488;1244;59667;-66
2022/01/25 10:11:12;;;;;;;62.00;40.00;;;;;;;6.57;22.91;98687.14;110558;1244;72211;-68
2022/01/25 10:13:51;;;;;;;55.50;36.30;;;;;;;6.72;23.46;98683.33;110291;1247;67686;-68
2022/01/25 10:16:29;;;;;;;66.50;42.90;;;;;;;7.45;22.64;98677.18;110310;1244;68447;-68
2022/01/25 10:19:04;;;;;;;71.30;44.50;;;;;;;7.78;21.38;98670.48;110636;1244;59684;-69
2022/01/25 10:21:33;;;;;;;67.20;43.10;;;;;;;7.01;21.16;98663.84;110539;1244;59623;-69
2022/01/25 10:24:06;;;;;;;46.90;31.40;;;;;;;6.84;22.04;98671.60;110286;1247;71363;-69
2022/01/25 10:26:41;;;;;;;64.80;44.10;;;;;;;7.33;22.14;98674.90;110510;1245;67828;-68
2022/01/25 10:29:18;;;;;;;58.60;37.80;;;;;;;7.37;21.81;98670.77;110480;1244;69253;-67
2022/01/25 10:31:51;;;;;;;62.10;40.00;;;;;;;7.06;21.89;98668.11;110443;1244;59723;-71
2022/01/25 10:34:34;;;;;;;56.10;36.30;;;;;;;5.72;23.06;98663.23;110287;1247;59686;-68
2022/01/25 10:37:12;;;;;;;51.80;33.70;;;;;;;4.52;24.32;98658.29;110500;1245;71308;-67
2022/01/25 10:39:44;;;;;;;53.60;31.90;;;;;;;3.27;25.78;98660.35;110542;1244;68379;-67
2022/01/25 10:42:29;;;;;;;56.40;35.90;;;;;;;2.27;27.13;98655.65;110452;1247;69400;-66
2022/01/25 10:45:04;;;;;;;60.50;39.70;;;;;;;1.33;28.23;98657.82;110509;1245;59645;-68
2022/01/25 10:47:44;;;;;;;69.70;44.80;;;;;;;0.41;29.52;98649.17;110300;1246;59624;-67
2022/01/25 10:50:19;;;;;;;74.60;48.80;;;;;;;-1.16;31.76;98645.84;110497;1245;71640;-67
2022/01/25 10:53:08;;;;;;;75.20;47.80;;;;;;;-1.93;33.25;98645.53;110435;1244;67820;-67
2022/01/25 10:55:40;;;;;;;84.20;54.40;;;;;;;-3.06;35.91;98646.84;110593;1244;69375;-68
2022/01/25 10:58:10;;;;;;;85.90;52.70;;;;;;;-3.77;37.33;98640.34;110250;1247;59693;-69
2022/01/25 11:00:43;;;;;;;71.00;44.30;;;;;;;-4.45;38.73;98640.52;110563;1244;59689;-67
2022/01/25 11:03:32;;;;;;;77.20;46.60;;;;;;;-4.79;40.11;98634.32;110606;1244;71487;-66
2022/01/25 11:06:16;;;;;;;69.70;40.20;;;;;;;-5.00;40.53;98631.77;110443;1245;68353;-66
2022/01/25 11:08:53;;;;;;;71.00;43.90;;;;;;;-5.14;41.66;98623.84;110194;1247;69232;-66
2022/01/25 11:11:32;;;;;;;65.10;42.50;;;;;;;-5.24;41.60;98621.03;110293;1247;59677;-68
2022/01/25 11:14:50;;;;;;;59.70;39.60;;;;;;;-5.44;42.27;98616.07;110577;1244;59672;-69
2022/01/25 11:16:53;;;;;;;66.00;44.50;;;;;;;-5.86;42.83;98615.63;110239;1247;71399;-67
2022/01/25 11:19:24;;;;;;;86.00;54.10;;;;;;;-6.01;43.67;98617.18;110457;1244;68755;-66
2022/01/25 11:21:55;;;;;;;73.60;44.80;;;;;;;-6.28;44.74;98607.49;110434;1244;69342;-67
2022/01/25 11:24:26;;;;;;;86.60;50.60;;;;;;;-6.53;45.29;98615.64;110437;1244;59745;-66
2022/01/25 11:26:56;;;;;;;92.30;58.40;;;;;;;-6.67;46.80;98609.33;110081;1247;59702;-67
2022/01/25 11:29:26;;;;;;;83.60;53.40;;;;;;;-6.82;46.89;98605.73;110447;1247;69969;-68
2022/01/25 11:32:02;;;;;;;80.40;52.30;;;;;;;-7.00;47.52;98608.15;110554;1244;67590;-66
2022/01/25 11:34:34;;;;;;;69.20;42.00;;;;;;;-7.12;48.05;98604.73;110634;1244;69348;-67
2022/01/25 11:37:08;;;;;;;78.40;43.10;;;;;;;-7.06;48.24;98601.61;110239;1244;59741;-68
2022/01/25 11:39:43;;;;;;;74.40;43.40;;;;;;;-6.94;48.23;98607.57;110560;1245;59682;-66
2022/01/25 11:42:16;;;;;;;90.80;50.60;;;;;;;-7.02;48.57;98605.58;110275;1244;71535;-67
2022/01/25 11:45:13;;;;;;;84.00;49.50;;;;;;;-7.02;48.81;98607.77;110637;1244;67603;-69
2022/01/25 11:47:49;;;;;;;83.70;48.90;;;;;;;-6.99;48.88;98603.94;110561;1244;69219;-67
2022/01/25 11:50:18;;;;;;;80.70;47.70;;;;;;;-7.08;49.39;98599.91;110309;1245;59728;-67
2022/01/25 11:52:50;;;;;;;57.40;33.80;;;;;;;-7.10;49.29;98601.40;110536;1244;59640;-66
2022/01/25 11:55:33;;;;;;;56.20;32.80;;;;;;;-7.04;49.32;98596.92;110570;1246;71569;-67
2022/01/25 11:58:13;;;;;;;76.10;41.30;;;;;;;-6.85;48.56;98592.97;110281;1247;69006;-66
2022/01/25 12:00:51;;;;;;;72.50;41.10;;;;;;;-6.69;48.16;98592.52;110316;1245;68476;-65
2022/01/25 12:03:29;;;;;;;54.90;32.70;;;;;;;-6.72;48.45;98587.73;110465;1244;59716;-67
2022/01/25 12:06:03;;;;;;;54.10;32.00;;;;;;;-6.59;48.04;98579.09;110159;1247;59690;-68
2022/01/25 12:08:53;;;;;;;65.50;36.50;;;;;;;-6.55;47.79;98579.66;110543;1245;70807;-66
2022/01/25 12:11:30;;;;;;;60.40;34.90;;;;;;;-6.56;47.52;98576.08;110508;1245;67891;-66
2022/01/25 12:14:12;;;;;;;39.80;24.50;;;;;;;-6.56;47.38;98574.55;110559;1244;68742;-67
2022/01/25 12:16:44;;;;;;;37.00;22.70;;;;;;;-6.40;47.04;98573.59;110508;1244;59672;-68
2022/01/25 12:19:16;;;;;;;54.50;31.70;;;;;;;-6.21;46.81;98578.91;110524;1244;59692;-66
2022/01/25 12:21:45;;;;;;;39.90;21.10;;;;;;;-6.21;46.55;98573.32;110492;1244;71197;-66
2022/01/25 12:24:20;;;;;;;63.50;35.30;;;;;;;-6.10;46.55;98571.23;110572;1244;68270;-66
2022/01/25 12:27:10;;;;;;;49.00;30.40;;;;;;;-6.09;46.63;98569.05;110538;1244;70101;-66
2022/01/25 12:29:43;;;;;;;41.30;24.20;;;;;;;-6.01;47.01;98570.15;110564;1244;59728;-66
2022/01/25 12:32:23;;;;;;;45.40;27.70;;;;;;;-5.81;46.88;98572.37;110357;1244;59731;-66
2022/01/25 12:35:10;;;;;;;49.00;28.00;;;;;;;-5.57;46.28;98563.45;110578;1244;71842;-69
2022/01/25 12:37:44;;;;;;;54.40;29.40;;;;;;;-5.51;45.86;98563.33;110575;1245;68802;-67
2022/01/25 12:40:26;;;;;;;37.10;19.90;;;;;;;-5.40;46.62;98568.04;110547;1245;68885;-66
2022/01/25 12:43:02;;;;;;;34.10;21.20;;;;;;;-5.13;46.32;98562.64;110523;1244;59764;-69
2022/01/25 12:45:40;;;;;;;41.60;24.90;;;;;;;-4.87;45.65;98558.58;110312;1247;59732;-67
2022/01/25 12:48:13;;;;;;;49.50;29.40;;;;;;;-4.72;45.07;98554.61;110562;1244;72067;-67
2022/01/25 12:50:44;;;;;;;51.80;29.90;;;;;;;-4.66;44.89;98553.61;110314;1244;67254;-67
2022/01/25 12:53:17;;;;;;;30.20;17.90;;;;;;;-4.57;44.84;98549.92;110284;1246;69445;-67
2022/01/25 12:55:49;;;;;;;39.40;22.10;;;;;;;-4.43;45.05;98538.42;110593;1244;59678;-67
2022/01/25 12:58:23;;;;;;;62.40;34.40;;;;;;;-4.30;44.77;98542.91;110550;1244;59630;-66
2022/01/25 13:00:56;;;;;;;34.50;20.70;;;;;;;-4.29;44.63;98540.36;110583;1244;71489;-68
2022/01/25 13:03:41;;;;;;;23.80;15.70;;;;;;;-4.31;45.12;98542.22;110600;1244;68048;-66
2022/01/25 13:06:17;;;;;;;39.40;19.90;;;;;;;-4.29;45.28;98544.63;110283;1246;68685;-67
2022/01/25 13:08:53;;;;;;;23.50;15.40;;;;;;;-4.33;46.02;98544.42;110494;1244;59752;-67
2022/01/25 13:12:25;;;;;;;27.30;15.70;;;;;;;-4.47;46.86;98543.34;110545;1244;59726;-67
2022/01/25 13:17:25;;;;;;;26.10;16.20;;;;;;;-4.92;49.39;98540.86;110224;1246;67948;-67
2022/01/25 13:20:02;;;;;;;26.50;15.00;;;;;;;-5.03;49.96;98542.65;110550;1244;68653;-67
2022/01/25 13:22:38;;;;;;;37.80;19.10;;;;;;;-5.14;50.15;98546.16;110503;1244;59668;-68